Time;durP1;ratioP1;P1;durP2;ratioP2;P2;SDS_P1;SDS_P2;PMS_P1;PMS_P2;Temp;Humidity;BMP_temperature;BMP_pressure;BME280_temperature;BME280_humidity;BME280_pressure;Samples;Min_cycle;Max_cycle;Signal;HPM_P1;HPM_P2
2022/08/06 00:02:24;;;;;;;3.70;2.43;;;;;;;;;;5072274;28;20819;-76
2022/08/06 00:04:53;;;;;;;2.90;2.70;;;;;;;;;;5071962;28;20476;-75
2022/08/06 00:07:20;;;;;;;2.77;2.27;;;;;;;;;;5072787;28;20440;-76
2022/08/06 00:09:47;;;;;;;2.43;2.23;;;;;;;;;;5076014;28;20448;-76
2022/08/06 00:12:14;;;;;;;2.77;2.57;;;;;;;;;;5090447;28;20483;-75
2022/08/06 00:14:41;;;;;;;2.70;2.50;;;;;;;;;;5090198;28;20517;-76
2022/08/06 00:17:08;;;;;;;3.20;2.57;;;;;;;;;;5090710;28;20440;-76
2022/08/06 00:19:36;;;;;;;2.53;2.33;;;;;;;;;;5090628;28;20447;-77
2022/08/06 00:22:04;;;;;;;2.57;2.37;;;;;;;;;;5090589;28;20436;-76
2022/08/06 00:24:31;;;;;;;3.50;2.27;;;;;;;;;;5090393;28;20525;-76
2022/08/06 00:26:58;;;;;;;3.00;2.60;;;;;;;;;;5090289;28;20674;-75
2022/08/06 00:29:25;;;;;;;2.63;2.43;;;;;;;;;;5091528;28;20443;-75
2022/08/06 00:31:52;;;;;;;2.63;2.53;;;;;;;;;;5113961;28;20455;-75
2022/08/06 00:34:19;;;;;;;4.70;2.10;;;;;;;;;;5111259;28;20513;-75
2022/08/06 00:36:46;;;;;;;3.03;2.40;;;;;;;;;;5106786;28;20472;-75
2022/08/06 00:39:14;;;;;;;2.73;2.53;;;;;;;;;;5099141;28;20443;-76
2022/08/06 00:41:41;;;;;;;2.60;2.40;;;;;;;;;;5092716;28;20447;-76
2022/08/06 00:44:09;;;;;;;2.10;2.00;;;;;;;;;;5090355;28;20455;-75
2022/08/06 00:46:36;;;;;;;2.93;2.00;;;;;;;;;;5090449;28;20455;-75
2022/08/06 00:49:03;;;;;;;2.27;2.10;;;;;;;;;;5090524;28;20443;-75
2022/08/06 00:51:30;;;;;;;2.40;2.20;;;;;;;;;;5090706;28;20432;-75
2022/08/06 00:53:57;;;;;;;2.00;1.90;;;;;;;;;;5090543;28;20479;-77
2022/08/06 00:56:25;;;;;;;8.63;2.50;;;;;;;;;;5094166;28;20447;-76
2022/08/06 00:58:52;;;;;;;3.00;1.90;;;;;;;;;;5099562;28;20459;-75
2022/08/06 01:01:19;;;;;;;2.30;2.20;;;;;;;;;;5100698;28;20811;-75
2022/08/06 01:03:47;;;;;;;2.47;2.03;;;;;;;;;;5095850;28;20818;-75
2022/08/06 01:06:14;;;;;;;3.70;2.33;;;;;;;;;;5094032;28;20464;-75
2022/08/06 01:08:41;;;;;;;1.70;1.70;;;;;;;;;;5093714;28;20465;-76
2022/08/06 01:11:08;;;;;;;2.50;2.10;;;;;;;;;;5078208;28;20469;-75
2022/08/06 01:13:36;;;;;;;2.40;2.17;;;;;;;;;;5073302;28;20506;-75
2022/08/06 01:16:12;;;;;;;2.90;2.03;;;;;;;;;;5073722;28;20523;-76
2022/08/06 01:18:43;;;;;;;2.03;1.83;;;;;;;;;;5073676;28;20487;-75
2022/08/06 01:21:14;;;;;;;2.07;1.93;;;;;;;;;;5073320;28;20467;-76
2022/08/06 01:23:52;;;;;;;2.13;1.93;;;;;;;;;;5073312;28;20436;-76
2022/08/06 01:26:25;;;;;;;2.13;2.03;;;;;;;;;;5073592;28;20448;-75
2022/08/06 01:28:57;;;;;;;2.23;2.03;;;;;;;;;;5076302;28;20895;-75
2022/08/06 01:31:28;;;;;;;1.87;1.77;;;;;;;;;;5074748;28;20433;-77
2022/08/06 01:33:58;;;;;;;2.10;2.00;;;;;;;;;;5073422;28;20484;-77
2022/08/06 01:36:28;;;;;;;1.93;1.70;;;;;;;;;;5073588;28;20582;-77
2022/08/06 01:38:58;;;;;;;2.27;2.10;;;;;;;;;;5073374;28;20532;-75
2022/08/06 01:41:39;;;;;;;1.93;1.83;;;;;;;;;;5073415;28;20440;-75
2022/08/06 01:44:08;;;;;;;2.17;2.07;;;;;;;;;;5072721;28;20471;-75
2022/08/06 01:46:37;;;;;;;1.93;1.73;;;;;;;;;;5073548;28;20448;-75
2022/08/06 01:49:05;;;;;;;2.03;1.80;;;;;;;;;;5073344;28;20448;-76
2022/08/06 01:51:32;;;;;;;2.37;2.17;;;;;;;;;;5073434;28;20491;-76
2022/08/06 01:54:00;;;;;;;2.20;1.87;;;;;;;;;;5072731;28;20502;-76
2022/08/06 01:56:28;;;;;;;2.40;1.80;;;;;;;;;;5072890;28;20453;-75
2022/08/06 01:58:56;;;;;;;3.00;1.80;;;;;;;;;;5072690;28;20531;-76
2022/08/06 02:01:25;;;;;;;2.00;1.80;;;;;;;;;;5072942;28;20985;-75
2022/08/06 02:03:54;;;;;;;2.17;2.07;;;;;;;;;;5072945;28;20940;-76
2022/08/06 02:06:22;;;;;;;3.80;2.23;;;;;;;;;;5072128;28;20448;-78
2022/08/06 02:08:50;;;;;;;3.03;2.10;;;;;;;;;;5072921;28;20444;-77
2022/08/06 02:11:18;;;;;;;1.90;1.80;;;;;;;;;;5090085;28;20988;-77
2022/08/06 02:13:46;;;;;;;2.60;2.40;;;;;;;;;;5092648;28;20475;-76
2022/08/06 02:16:14;;;;;;;2.07;1.80;;;;;;;;;;5092453;28;20443;-75
2022/08/06 02:18:45;;;;;;;2.03;1.90;;;;;;;;;;5092616;28;20845;-75
2022/08/06 02:21:16;;;;;;;1.70;1.60;;;;;;;;;;5092401;28;20443;-75
2022/08/06 02:23:44;;;;;;;4.10;1.90;;;;;;;;;;5091815;28;20537;-75
2022/08/06 02:26:12;;;;;;;2.20;2.00;;;;;;;;;;5092563;28;20436;-75
2022/08/06 02:28:40;;;;;;;2.23;2.10;;;;;;;;;;5092373;28;20440;-76
2022/08/06 02:31:07;;;;;;;2.40;2.17;;;;;;;;;;5092463;28;20440;-76
2022/08/06 02:33:34;;;;;;;2.40;2.20;;;;;;;;;;5092552;28;20463;-75
2022/08/06 02:36:05;;;;;;;2.10;2.00;;;;;;;;;;5092776;28;20475;-75
2022/08/06 02:38:35;;;;;;;2.23;2.00;;;;;;;;;;5092337;28;20443;-74
2022/08/06 02:41:03;;;;;;;2.60;2.20;;;;;;;;;;5092584;28;20447;-75
2022/08/06 02:43:33;;;;;;;1.80;1.70;;;;;;;;;;5091520;28;20490;-76
2022/08/06 02:46:04;;;;;;;4.47;2.30;;;;;;;;;;5092126;28;20983;-76
2022/08/06 02:48:34;;;;;;;2.07;1.73;;;;;;;;;;5092466;28;20444;-75
2022/08/06 02:51:06;;;;;;;4.63;2.00;;;;;;;;;;5093308;28;20460;-75
2022/08/06 02:53:36;;;;;;;2.63;2.40;;;;;;;;;;5092748;28;20568;-76
2022/08/06 02:56:05;;;;;;;2.00;1.80;;;;;;;;;;5092632;28;20443;-74
2022/08/06 02:58:34;;;;;;;3.67;2.13;;;;;;;;;;5092198;28;20999;-76
2022/08/06 03:01:01;;;;;;;2.30;2.10;;;;;;;;;;5092558;28;20452;-75
2022/08/06 03:03:29;;;;;;;2.93;2.23;;;;;;;;;;5091608;28;21107;-75
2022/08/06 03:05:57;;;;;;;2.10;1.83;;;;;;;;;;5091586;28;20982;-74
2022/08/06 03:08:26;;;;;;;4.10;1.90;;;;;;;;;;5092116;28;20521;-75
2022/08/06 03:10:55;;;;;;;3.23;2.27;;;;;;;;;;5078091;28;20436;-75
2022/08/06 03:13:23;;;;;;;2.30;2.17;;;;;;;;;;5071111;28;20483;-74
2022/08/06 03:15:51;;;;;;;3.97;1.90;;;;;;;;;;5071091;28;20501;-75
2022/08/06 03:18:18;;;;;;;2.00;1.90;;;;;;;;;;5071493;28;20490;-75
2022/08/06 03:20:45;;;;;;;3.37;2.10;;;;;;;;;;5070915;28;21176;-75
2022/08/06 03:23:13;;;;;;;2.57;2.37;;;;;;;;;;5071200;28;20866;-74
2022/08/06 03:25:44;;;;;;;1.87;1.77;;;;;;;;;;5071416;28;21153;-76
2022/08/06 03:28:12;;;;;;;2.57;2.23;;;;;;;;;;5071109;28;20449;-76
2022/08/06 03:30:40;;;;;;;2.40;2.20;;;;;;;;;;5071294;28;20529;-75
2022/08/06 03:33:09;;;;;;;2.67;2.47;;;;;;;;;;5070713;28;20472;-75
2022/08/06 03:35:37;;;;;;;3.57;2.77;;;;;;;;;;5070776;28;20471;-74
2022/08/06 03:38:05;;;;;;;2.47;2.27;;;;;;;;;;5070797;28;20432;-76
2022/08/06 03:40:33;;;;;;;3.60;2.17;;;;;;;;;;5070775;28;20494;-75
2022/08/06 03:43:01;;;;;;;2.60;2.00;;;;;;;;;;5070459;28;20447;-75
2022/08/06 03:45:29;;;;;;;2.40;2.13;;;;;;;;;;5072398;28;20461;-75
2022/08/06 03:47:57;;;;;;;2.50;2.40;;;;;;;;;;5073880;28;20502;-76
2022/08/06 03:50:27;;;;;;;2.90;2.70;;;;;;;;;;5071098;28;20455;-74
2022/08/06 03:52:56;;;;;;;2.30;2.10;;;;;;;;;;5070431;28;20441;-76
2022/08/06 03:55:25;;;;;;;3.73;3.00;;;;;;;;;;5070456;28;20460;-76
2022/08/06 03:57:54;;;;;;;2.40;2.20;;;;;;;;;;5070672;28;20460;-74
2022/08/06 04:00:24;;;;;;;2.73;2.53;;;;;;;;;;5070859;28;20452;-76
2022/08/06 04:02:53;;;;;;;2.50;2.30;;;;;;;;;;5071177;28;20437;-75
2022/08/06 04:05:21;;;;;;;2.50;2.30;;;;;;;;;;5070868;28;21025;-75
2022/08/06 04:07:49;;;;;;;2.43;2.33;;;;;;;;;;5072475;28;20444;-75
2022/08/06 04:10:16;;;;;;;3.40;2.23;;;;;;;;;;5083845;28;20505;-75
2022/08/06 04:12:44;;;;;;;2.50;2.30;;;;;;;;;;5093132;28;20493;-75
2022/08/06 04:15:12;;;;;;;2.87;2.63;;;;;;;;;;5090773;28;20979;-76
2022/08/06 04:17:41;;;;;;;2.60;2.40;;;;;;;;;;5090422;28;20559;-75
2022/08/06 04:20:09;;;;;;;2.03;1.93;;;;;;;;;;5090435;28;20500;-76
2022/08/06 04:22:36;;;;;;;3.17;2.77;;;;;;;;;;5089885;28;20447;-75
2022/08/06 04:25:03;;;;;;;2.30;2.20;;;;;;;;;;5090500;28;20459;-75
2022/08/06 04:27:30;;;;;;;3.33;2.47;;;;;;;;;;5090805;28;20467;-74
2022/08/06 04:29:58;;;;;;;2.53;2.43;;;;;;;;;;5089744;28;20432;-75
2022/08/06 04:32:26;;;;;;;2.43;2.33;;;;;;;;;;5090144;28;20493;-76
2022/08/06 04:34:55;;;;;;;2.60;2.40;;;;;;;;;;5089877;28;20483;-74
2022/08/06 04:37:22;;;;;;;2.60;2.37;;;;;;;;;;5090445;28;20447;-75
2022/08/06 04:39:50;;;;;;;2.30;2.20;;;;;;;;;;5090772;28;20439;-75
2022/08/06 04:42:17;;;;;;;3.57;2.70;;;;;;;;;;5090416;28;20439;-76
2022/08/06 04:44:45;;;;;;;2.80;2.60;;;;;;;;;;5090261;28;20476;-75
2022/08/06 04:47:12;;;;;;;2.27;2.10;;;;;;;;;;5090423;28;20488;-75
2022/08/06 04:49:39;;;;;;;3.90;2.30;;;;;;;;;;5098563;28;20527;-75
2022/08/06 04:52:07;;;;;;;2.53;2.33;;;;;;;;;;5102432;28;20444;-76
2022/08/06 04:54:34;;;;;;;2.80;2.10;;;;;;;;;;5101146;28;20491;-75
2022/08/06 04:57:01;;;;;;;2.50;2.30;;;;;;;;;;5090004;28;20543;-76
2022/08/06 04:59:28;;;;;;;2.43;2.10;;;;;;;;;;5089917;28;21041;-76
2022/08/06 05:01:55;;;;;;;1.90;1.87;;;;;;;;;;5089864;28;20451;-76
2022/08/06 05:04:23;;;;;;;2.90;2.50;;;;;;;;;;5090021;28;20475;-74
2022/08/06 05:06:54;;;;;;;3.53;2.50;;;;;;;;;;5090409;28;20939;-75
2022/08/06 05:09:24;;;;;;;2.40;2.20;;;;;;;;;;5090032;28;20508;-76
2022/08/06 05:11:55;;;;;;;2.80;2.60;;;;;;;;;;5090360;28;20443;-76
2022/08/06 05:14:25;;;;;;;2.20;2.10;;;;;;;;;;5089740;28;20536;-74
2022/08/06 05:16:53;;;;;;;2.90;2.50;;;;;;;;;;5090082;28;20477;-75
2022/08/06 05:19:23;;;;;;;2.67;2.30;;;;;;;;;;5090142;28;20509;-77
2022/08/06 05:21:50;;;;;;;2.20;2.10;;;;;;;;;;5089864;28;20993;-75
2022/08/06 05:24:17;;;;;;;2.80;2.40;;;;;;;;;;5089421;28;20534;-76
2022/08/06 05:26:47;;;;;;;2.77;2.53;;;;;;;;;;5090062;28;20938;-76
2022/08/06 05:29:19;;;;;;;2.40;2.30;;;;;;;;;;5091525;28;20463;-75
2022/08/06 05:31:46;;;;;;;2.40;2.20;;;;;;;;;;5093825;28;20509;-75
2022/08/06 05:34:13;;;;;;;6.80;2.70;;;;;;;;;;5090906;28;20494;-75
2022/08/06 05:36:40;;;;;;;2.70;2.50;;;;;;;;;;5090204;28;20440;-75
2022/08/06 05:39:08;;;;;;;4.53;2.17;;;;;;;;;;5090239;28;20449;-76
2022/08/06 05:41:35;;;;;;;2.50;2.30;;;;;;;;;;5091784;28;20865;-74
2022/08/06 05:44:03;;;;;;;2.50;2.40;;;;;;;;;;5093838;28;20487;-75
2022/08/06 05:46:34;;;;;;;2.30;2.20;;;;;;;;;;5096510;28;20443;-76
2022/08/06 05:49:04;;;;;;;2.67;2.40;;;;;;;;;;5099425;28;20443;-75
2022/08/06 05:51:35;;;;;;;3.20;3.00;;;;;;;;;;5098835;28;20440;-75
2022/08/06 05:54:12;;;;;;;3.83;2.67;;;;;;;;;;5101530;28;20479;-75
2022/08/06 05:56:42;;;;;;;2.30;2.20;;;;;;;;;;5095257;28;20840;-76
2022/08/06 05:59:13;;;;;;;2.97;2.77;;;;;;;;;;5089690;28;20452;-74
2022/08/06 06:01:40;;;;;;;2.87;2.67;;;;;;;;;;5096740;28;21195;-75
2022/08/06 06:04:07;;;;;;;3.10;2.90;;;;;;;;;;5092566;28;21254;-76
2022/08/06 06:06:34;;;;;;;2.80;2.60;;;;;;;;;;5094764;28;20500;-75
2022/08/06 06:09:02;;;;;;;2.53;2.33;;;;;;;;;;5092957;28;20440;-77
2022/08/06 06:11:29;;;;;;;4.33;2.87;;;;;;;;;;5093491;28;20448;-77
2022/08/06 06:13:56;;;;;;;2.63;2.43;;;;;;;;;;5092587;28;20533;-77
2022/08/06 06:16:28;;;;;;;3.67;3.07;;;;;;;;;;5092648;28;20440;-75
2022/08/06 06:19:03;;;;;;;3.10;2.80;;;;;;;;;;5092541;28;20961;-76
2022/08/06 06:21:37;;;;;;;3.43;3.00;;;;;;;;;;5092195;28;20443;-76
2022/08/06 06:24:08;;;;;;;3.00;2.60;;;;;;;;;;5092360;28;20542;-76
2022/08/06 06:26:39;;;;;;;3.20;2.90;;;;;;;;;;5092601;28;20434;-76
2022/08/06 06:29:09;;;;;;;2.53;2.33;;;;;;;;;;5092345;28;20428;-75
2022/08/06 06:31:40;;;;;;;2.60;2.40;;;;;;;;;;5092425;28;20444;-77
2022/08/06 06:34:10;;;;;;;4.20;3.30;;;;;;;;;;5092429;28;20475;-75
2022/08/06 06:36:40;;;;;;;3.70;2.60;;;;;;;;;;5092323;28;20452;-74
2022/08/06 06:39:10;;;;;;;4.30;2.83;;;;;;;;;;5092301;28;20448;-75
2022/08/06 06:41:42;;;;;;;3.80;2.47;;;;;;;;;;5092118;28;20470;-76
2022/08/06 06:44:13;;;;;;;3.33;2.43;;;;;;;;;;5091494;28;20844;-75
2022/08/06 06:46:44;;;;;;;3.57;3.00;;;;;;;;;;5092697;28;20436;-77
2022/08/06 06:49:14;;;;;;;4.33;2.67;;;;;;;;;;5093087;28;20471;-75
2022/08/06 06:51:42;;;;;;;2.90;2.80;;;;;;;;;;5092805;28;20513;-76
2022/08/06 06:54:11;;;;;;;3.03;2.73;;;;;;;;;;5095829;28;20502;-76
2022/08/06 06:56:41;;;;;;;6.03;2.23;;;;;;;;;;5106260;28;20577;-75
2022/08/06 06:59:10;;;;;;;3.03;2.83;;;;;;;;;;5093553;28;20453;-77
2022/08/06 07:01:37;;;;;;;2.80;2.60;;;;;;;;;;5092340;28;20443;-77
2022/08/06 07:04:08;;;;;;;3.07;2.80;;;;;;;;;;5097014;28;20451;-75
2022/08/06 07:06:36;;;;;;;3.13;2.90;;;;;;;;;;5115105;28;20432;-75
2022/08/06 07:09:04;;;;;;;2.67;2.57;;;;;;;;;;5115246;28;20444;-75
2022/08/06 07:11:32;;;;;;;6.23;2.90;;;;;;;;;;5111060;28;20451;-75
2022/08/06 07:14:00;;;;;;;2.90;2.70;;;;;;;;;;5093701;28;20880;-75
2022/08/06 07:16:27;;;;;;;3.20;2.80;;;;;;;;;;5100597;28;20452;-76
2022/08/06 07:18:55;;;;;;;3.40;3.10;;;;;;;;;;5094961;28;20456;-76
2022/08/06 07:21:24;;;;;;;2.57;2.40;;;;;;;;;;5099353;28;20444;-75
2022/08/06 07:23:52;;;;;;;3.07;2.77;;;;;;;;;;5087600;28;20454;-76
2022/08/06 07:26:20;;;;;;;4.90;2.87;;;;;;;;;;5087882;28;20509;-74
2022/08/06 07:28:47;;;;;;;3.30;3.03;;;;;;;;;;5091650;28;20884;-76
2022/08/06 07:31:14;;;;;;;2.90;2.70;;;;;;;;;;5091905;28;20440;-76
2022/08/06 07:33:42;;;;;;;2.97;2.67;;;;;;;;;;5090933;28;20448;-76
2022/08/06 07:36:10;;;;;;;3.57;2.80;;;;;;;;;;5092333;28;20483;-75
2022/08/06 07:38:42;;;;;;;4.43;3.53;;;;;;;;;;5090124;28;20966;-75
2022/08/06 07:41:09;;;;;;;3.73;2.87;;;;;;;;;;5089545;28;20447;-75
2022/08/06 07:43:40;;;;;;;3.17;2.80;;;;;;;;;;5091033;28;20494;-75
2022/08/06 07:46:08;;;;;;;3.33;2.80;;;;;;;;;;5070985;28;20494;-76
2022/08/06 07:48:38;;;;;;;2.87;2.67;;;;;;;;;;5081010;28;20444;-76
2022/08/06 07:51:05;;;;;;;3.40;3.10;;;;;;;;;;5091009;28;20508;-76
2022/08/06 07:53:33;;;;;;;5.80;2.87;;;;;;;;;;5091478;28;20479;-77
2022/08/06 07:56:02;;;;;;;3.10;2.90;;;;;;;;;;5090825;28;20897;-77
2022/08/06 07:58:29;;;;;;;3.00;2.63;;;;;;;;;;5091249;28;20444;-76
2022/08/06 08:00:56;;;;;;;5.10;2.80;;;;;;;;;;5090902;28;20845;-76
2022/08/06 08:06:24;;;;;;;3.10;2.80;;;;;;;;;;5090920;28;20508;-76
2022/08/06 08:08:53;;;;;;;3.00;2.80;;;;;;;;;;5090692;28;20458;-76
2022/08/06 08:11:24;;;;;;;3.50;3.17;;;;;;;;;;5090575;28;20440;-76
2022/08/06 08:13:51;;;;;;;3.03;2.73;;;;;;;;;;5090085;28;20444;-75
2022/08/06 08:16:19;;;;;;;3.00;2.80;;;;;;;;;;5090846;28;20508;-78
2022/08/06 08:18:46;;;;;;;2.70;2.50;;;;;;;;;;5091433;28;20842;-76
2022/08/06 08:21:14;;;;;;;3.90;3.13;;;;;;;;;;5090709;28;20504;-76
2022/08/06 08:23:41;;;;;;;4.40;2.77;;;;;;;;;;5090398;28;20447;-76
2022/08/06 08:26:09;;;;;;;2.57;2.40;;;;;;;;;;5091219;28;20957;-78
2022/08/06 08:28:38;;;;;;;2.33;2.13;;;;;;;;;;5093408;28;20854;-77
2022/08/06 08:31:06;;;;;;;3.37;2.80;;;;;;;;;;5091442;28;20943;-75
2022/08/06 08:33:33;;;;;;;2.97;2.67;;;;;;;;;;5090449;28;20447;-77
2022/08/06 08:36:00;;;;;;;2.43;2.27;;;;;;;;;;5090619;28;20476;-76
2022/08/06 08:38:27;;;;;;;3.50;2.77;;;;;;;;;;5090041;28;20526;-75
2022/08/06 08:40:56;;;;;;;2.87;2.67;;;;;;;;;;5090756;28;20872;-76
2022/08/06 08:43:24;;;;;;;3.57;3.17;;;;;;;;;;5089996;28;20444;-76
2022/08/06 08:45:53;;;;;;;4.53;2.50;;;;;;;;;;5090152;28;20517;-76
2022/08/06 08:48:24;;;;;;;3.97;2.43;;;;;;;;;;5089985;28;20444;-75
2022/08/06 08:50:51;;;;;;;3.27;2.83;;;;;;;;;;5089377;28;20514;-75
2022/08/06 08:53:24;;;;;;;3.13;2.83;;;;;;;;;;5090392;28;20446;-75
2022/08/06 08:55:51;;;;;;;2.80;2.60;;;;;;;;;;5090009;28;20483;-76
2022/08/06 08:58:18;;;;;;;3.00;2.70;;;;;;;;;;5089916;28;20504;-75
2022/08/06 09:00:45;;;;;;;3.67;2.40;;;;;;;;;;5089925;28;20444;-76
2022/08/06 09:03:14;;;;;;;2.53;2.43;;;;;;;;;;5089426;28;20456;-76
2022/08/06 09:05:41;;;;;;;2.67;2.57;;;;;;;;;;5089875;28;20464;-76
2022/08/06 09:08:11;;;;;;;2.93;2.63;;;;;;;;;;5089681;28;20540;-76
2022/08/06 09:10:38;;;;;;;2.80;2.60;;;;;;;;;;5078302;28;20444;-76
2022/08/06 09:13:05;;;;;;;4.07;3.00;;;;;;;;;;5083578;28;20470;-77
2022/08/06 09:15:32;;;;;;;3.53;3.23;;;;;;;;;;5091023;28;20487;-75
2022/08/06 09:17:59;;;;;;;2.90;2.70;;;;;;;;;;5093466;28;20501;-77
2022/08/06 09:20:27;;;;;;;3.40;3.10;;;;;;;;;;5093329;28;20448;-77
2022/08/06 09:22:54;;;;;;;2.70;2.50;;;;;;;;;;5093355;28;20439;-76
2022/08/06 09:25:38;;;;;;;3.30;2.53;;;;;;;;;;5093428;28;20471;-76
2022/08/06 09:28:06;;;;;;;2.90;2.70;;;;;;;;;;5093169;28;20443;-76
2022/08/06 09:30:33;;;;;;;3.10;2.80;;;;;;;;;;5093329;28;20519;-76
2022/08/06 09:33:00;;;;;;;2.30;2.20;;;;;;;;;;5092578;28;20447;-76
2022/08/06 09:35:29;;;;;;;2.50;2.30;;;;;;;;;;5093312;28;20494;-76
2022/08/06 09:38:01;;;;;;;2.37;2.27;;;;;;;;;;5093405;28;20497;-76
2022/08/06 09:40:28;;;;;;;3.00;2.47;;;;;;;;;;5093354;28;20448;-76
2022/08/06 09:42:55;;;;;;;2.43;2.33;;;;;;;;;;5092832;28;20492;-76
2022/08/06 09:45:23;;;;;;;3.73;2.60;;;;;;;;;;5092816;28;20459;-75
2022/08/06 09:48:00;;;;;;;3.90;2.90;;;;;;;;;;5093202;28;20448;-76
2022/08/06 09:50:37;;;;;;;2.67;2.47;;;;;;;;;;5093085;28;21026;-75
2022/08/06 09:53:04;;;;;;;3.30;3.00;;;;;;;;;;5092664;28;20443;-76
2022/08/06 09:55:32;;;;;;;3.90;2.80;;;;;;;;;;5093394;28;20475;-75
2022/08/06 09:57:59;;;;;;;2.40;2.13;;;;;;;;;;5092497;28;20479;-75
2022/08/06 10:00:27;;;;;;;2.73;2.53;;;;;;;;;;5093805;28;20860;-75
2022/08/06 10:02:56;;;;;;;2.83;2.53;;;;;;;;;;5095836;28;20497;-75
2022/08/06 10:05:24;;;;;;;2.37;2.27;;;;;;;;;;5094462;28;20528;-75
2022/08/06 10:08:03;;;;;;;3.07;2.80;;;;;;;;;;5092890;28;20504;-75
2022/08/06 10:10:40;;;;;;;3.50;3.20;;;;;;;;;;5094044;28;20459;-75
2022/08/06 10:13:12;;;;;;;2.50;2.40;;;;;;;;;;5093130;28;20447;-76
2022/08/06 10:15:39;;;;;;;2.90;2.27;;;;;;;;;;5094221;28;20480;-76
2022/08/06 10:18:06;;;;;;;3.57;2.67;;;;;;;;;;5093872;28;20863;-75
2022/08/06 10:20:33;;;;;;;2.93;2.73;;;;;;;;;;5094168;28;20447;-76
2022/08/06 10:23:02;;;;;;;3.03;2.67;;;;;;;;;;5093691;28;20931;-77
2022/08/06 10:25:29;;;;;;;2.70;2.50;;;;;;;;;;5094488;28;20455;-76
2022/08/06 10:27:57;;;;;;;2.67;2.47;;;;;;;;;;5094141;28;20538;-76
2022/08/06 10:30:24;;;;;;;4.47;2.77;;;;;;;;;;5092695;28;20436;-76
2022/08/06 10:32:53;;;;;;;3.90;2.53;;;;;;;;;;5084154;28;20881;-77
2022/08/06 10:35:22;;;;;;;3.90;2.70;;;;;;;;;;5088748;28;21032;-75
2022/08/06 10:37:51;;;;;;;2.73;2.53;;;;;;;;;;5092441;28;20494;-77
2022/08/06 10:40:21;;;;;;;2.70;2.50;;;;;;;;;;5091357;28;20544;-76
2022/08/06 10:42:48;;;;;;;2.33;2.20;;;;;;;;;;5091931;28;20518;-75
2022/08/06 10:45:15;;;;;;;3.20;2.80;;;;;;;;;;5092338;28;20513;-76
2022/08/06 10:47:42;;;;;;;2.50;2.30;;;;;;;;;;5090645;28;20456;-75
2022/08/06 10:50:10;;;;;;;3.63;2.07;;;;;;;;;;5091659;28;20448;-76
2022/08/06 10:52:38;;;;;;;3.47;2.97;;;;;;;;;;5091751;28;20554;-76
2022/08/06 10:55:05;;;;;;;2.87;2.47;;;;;;;;;;5091758;28;20978;-76
2022/08/06 10:57:34;;;;;;;2.50;2.27;;;;;;;;;;5091675;28;20862;-75
2022/08/06 11:00:01;;;;;;;2.57;2.47;;;;;;;;;;5091666;28;20436;-77
2022/08/06 11:02:33;;;;;;;2.60;2.40;;;;;;;;;;5091433;28;20512;-75
2022/08/06 11:05:01;;;;;;;4.70;2.43;;;;;;;;;;5091574;28;20558;-76
2022/08/06 11:07:53;;;;;;;2.47;2.30;;;;;;;;;;5092001;28;20451;-76
2022/08/06 11:10:27;;;;;;;3.23;2.50;;;;;;;;;;5088216;28;20436;-78
2022/08/06 11:12:58;;;;;;;2.73;2.53;;;;;;;;;;5091220;28;20515;-77
2022/08/06 11:15:26;;;;;;;2.30;2.10;;;;;;;;;;5091400;28;20528;-75
2022/08/06 11:17:54;;;;;;;2.00;1.90;;;;;;;;;;5089476;28;20452;-76
2022/08/06 11:20:39;;;;;;;2.83;2.27;;;;;;;;;;5090390;28;20493;-76
2022/08/06 11:23:22;;;;;;;2.50;2.30;;;;;;;;;;5071109;28;20936;-77
2022/08/06 11:25:50;;;;;;;3.33;2.50;;;;;;;;;;5071494;28;20483;-77
2022/08/06 11:28:19;;;;;;;3.13;2.90;;;;;;;;;;5070825;28;20540;-76
2022/08/06 11:30:47;;;;;;;3.00;2.57;;;;;;;;;;5071035;28;20441;-76
2022/08/06 11:33:15;;;;;;;2.80;2.60;;;;;;;;;;5070431;28;20441;-77
2022/08/06 11:35:45;;;;;;;3.33;2.27;;;;;;;;;;5070676;28;20476;-76
2022/08/06 11:38:13;;;;;;;2.23;2.07;;;;;;;;;;5071474;28;20484;-77
2022/08/06 11:40:56;;;;;;;2.57;2.37;;;;;;;;;;5071083;28;20447;-76
2022/08/06 11:43:51;;;;;;;2.83;2.73;;;;;;;;;;5070554;28;20445;-76
2022/08/06 11:46:19;;;;;;;2.10;1.90;;;;;;;;;;5046010;28;20461;-78
2022/08/06 11:49:06;;;;;;;3.20;2.23;;;;;;;;;;5070948;28;20440;-77
2022/08/06 11:51:39;;;;;;;2.40;2.30;;;;;;;;;;5070678;28;20447;-76
2022/08/06 11:54:10;;;;;;;2.20;2.00;;;;;;;;;;5070844;28;20540;-78
2022/08/06 11:56:37;;;;;;;5.10;2.40;;;;;;;;;;5070644;28;20559;-77
2022/08/06 11:59:13;;;;;;;7.27;2.60;;;;;;;;;;5071288;28;20432;-77
2022/08/06 12:01:48;;;;;;;2.80;2.40;;;;;;;;;;5070480;28;20513;-76
2022/08/06 12:04:30;;;;;;;3.00;2.40;;;;;;;;;;5070220;28;20533;-77
2022/08/06 12:07:11;;;;;;;2.10;2.00;;;;;;;;;;5070246;28;20433;-78
2022/08/06 12:09:40;;;;;;;2.30;2.20;;;;;;;;;;5073874;28;20435;-77
2022/08/06 12:12:25;;;;;;;2.17;2.07;;;;;;;;;;5091030;28;20451;-76
2022/08/06 12:14:53;;;;;;;3.73;2.07;;;;;;;;;;5090109;28;20536;-78
2022/08/06 12:17:22;;;;;;;2.40;2.20;;;;;;;;;;5090393;28;20476;-77
2022/08/06 12:19:50;;;;;;;2.30;2.17;;;;;;;;;;5090391;28;20447;-77
2022/08/06 12:22:19;;;;;;;2.40;1.97;;;;;;;;;;5090833;28;20867;-77
2022/08/06 12:24:47;;;;;;;1.87;1.77;;;;;;;;;;5090144;28;20463;-77
2022/08/06 12:27:14;;;;;;;2.87;2.10;;;;;;;;;;5090540;28;20501;-79
2022/08/06 12:29:42;;;;;;;2.33;1.80;;;;;;;;;;5090541;28;20456;-77
2022/08/06 12:32:23;;;;;;;2.33;2.13;;;;;;;;;;5090390;28;20935;-76
2022/08/06 12:34:51;;;;;;;2.73;1.93;;;;;;;;;;5090199;28;20489;-76
2022/08/06 12:37:18;;;;;;;2.50;2.30;;;;;;;;;;5090340;28;20484;-77
2022/08/06 12:42:31;;;;;;;2.43;2.27;;;;;;;;;;5089861;28;20795;-77
2022/08/06 12:44:58;;;;;;;2.07;1.90;;;;;;;;;;5089655;28;20887;-77
2022/08/06 12:47:26;;;;;;;2.03;1.93;;;;;;;;;;5090168;28;20927;-76
2022/08/06 12:49:53;;;;;;;2.50;2.30;;;;;;;;;;5091262;28;20435;-76
2022/08/06 12:52:21;;;;;;;2.40;2.20;;;;;;;;;;5094202;28;20448;-76
2022/08/06 12:54:49;;;;;;;2.20;2.00;;;;;;;;;;5094189;28;20466;-77
2022/08/06 12:57:22;;;;;;;2.20;2.10;;;;;;;;;;5094042;28;20471;-76
2022/08/06 12:59:50;;;;;;;3.60;1.93;;;;;;;;;;5094388;28;20443;-77
2022/08/06 13:02:19;;;;;;;2.00;1.90;;;;;;;;;;5094975;28;20440;-77
2022/08/06 13:04:49;;;;;;;2.10;2.00;;;;;;;;;;5094579;28;20499;-77
2022/08/06 13:07:17;;;;;;;2.30;2.10;;;;;;;;;;5087212;28;20439;-77
2022/08/06 13:09:45;;;;;;;2.77;1.90;;;;;;;;;;5093670;28;20497;-76
2022/08/06 13:12:13;;;;;;;2.70;1.70;;;;;;;;;;5095024;28;20436;-76
2022/08/06 13:14:49;;;;;;;1.83;1.73;;;;;;;;;;5095705;28;20546;-76
2022/08/06 13:17:16;;;;;;;2.10;1.90;;;;;;;;;;5074178;28;20480;-76
2022/08/06 13:19:53;;;;;;;2.10;1.90;;;;;;;;;;5073797;28;20744;-76
2022/08/06 13:22:20;;;;;;;1.80;1.30;;;;;;;;;;5073102;28;20968;-77
2022/08/06 13:24:47;;;;;;;2.03;1.63;;;;;;;;;;5073033;28;20464;-77
2022/08/06 13:27:14;;;;;;;1.90;1.80;;;;;;;;;;5073219;28;20517;-76
2022/08/06 13:29:56;;;;;;;2.20;1.57;;;;;;;;;;5073219;28;20501;-76
2022/08/06 13:32:25;;;;;;;2.10;1.70;;;;;;;;;;5072760;28;20485;-76
2022/08/06 13:34:56;;;;;;;3.27;1.97;;;;;;;;;;5073307;28;20496;-76
2022/08/06 13:37:42;;;;;;;1.77;1.67;;;;;;;;;;5074015;28;20481;-77
2022/08/06 13:40:09;;;;;;;2.67;1.97;;;;;;;;;;5073470;28;20523;-77
2022/08/06 13:42:48;;;;;;;2.50;1.80;;;;;;;;;;5072471;28;20726;-77
2022/08/06 13:45:20;;;;;;;1.80;1.63;;;;;;;;;;5072647;28;20460;-77
2022/08/06 13:47:49;;;;;;;1.83;1.70;;;;;;;;;;5072811;28;20527;-77
2022/08/06 13:50:17;;;;;;;2.60;1.50;;;;;;;;;;5072714;28;20468;-76
2022/08/06 13:52:44;;;;;;;3.00;1.93;;;;;;;;;;5072424;28;20732;-77
2022/08/06 13:55:11;;;;;;;1.60;1.50;;;;;;;;;;5072526;28;20464;-76
2022/08/06 13:57:39;;;;;;;1.67;1.57;;;;;;;;;;5072411;28;20526;-76
2022/08/06 14:00:07;;;;;;;2.80;1.60;;;;;;;;;;5072767;28;20474;-76
2022/08/06 14:02:34;;;;;;;1.43;1.43;;;;;;;;;;5071088;28;20452;-76
2022/08/06 14:05:03;;;;;;;3.10;1.50;;;;;;;;;;5072914;28;20472;-77
2022/08/06 14:07:31;;;;;;;2.33;1.53;;;;;;;;;;5072645;28;20472;-76
2022/08/06 14:09:58;;;;;;;2.13;1.80;;;;;;;;;;5078329;28;20447;-77
2022/08/06 14:12:25;;;;;;;1.90;1.80;;;;;;;;;;5092974;28;20439;-77
2022/08/06 14:14:52;;;;;;;3.13;1.90;;;;;;;;;;5092781;28;20467;-77
2022/08/06 14:17:19;;;;;;;1.67;1.57;;;;;;;;;;5092818;28;20562;-77
2022/08/06 14:19:46;;;;;;;1.60;1.50;;;;;;;;;;5092763;28;20583;-76
2022/08/06 14:22:15;;;;;;;1.30;1.30;;;;;;;;;;5092411;28;20986;-79
2022/08/06 14:24:43;;;;;;;2.00;1.40;;;;;;;;;;5092354;28;20516;-77
2022/08/06 14:27:10;;;;;;;1.50;1.40;;;;;;;;;;5092324;28;20435;-76
2022/08/06 14:29:38;;;;;;;3.13;1.40;;;;;;;;;;5092128;28;20440;-76
2022/08/06 14:32:05;;;;;;;4.03;1.73;;;;;;;;;;5092070;28;20992;-77
2022/08/06 14:34:32;;;;;;;1.97;1.40;;;;;;;;;;5091946;28;20471;-77
2022/08/06 14:36:59;;;;;;;4.10;1.80;;;;;;;;;;5092046;28;20471;-76
2022/08/06 14:39:26;;;;;;;1.60;1.50;;;;;;;;;;5092481;28;20443;-76
2022/08/06 14:44:59;;;;;;;2.07;1.50;;;;;;;;;;5091673;28;21049;-76
2022/08/06 14:47:26;;;;;;;1.60;1.50;;;;;;;;;;5091734;28;21005;-77
2022/08/06 14:49:53;;;;;;;2.10;1.63;;;;;;;;;;5091756;28;20432;-76
2022/08/06 14:52:20;;;;;;;4.67;1.77;;;;;;;;;;5091738;28;20522;-76
2022/08/06 14:54:47;;;;;;;2.57;1.80;;;;;;;;;;5091528;28;20491;-76
2022/08/06 14:57:16;;;;;;;1.50;1.40;;;;;;;;;;5091461;28;20463;-76
2022/08/06 14:59:44;;;;;;;2.10;1.33;;;;;;;;;;5091927;28;20435;-76
2022/08/06 15:02:11;;;;;;;1.67;1.57;;;;;;;;;;5091813;28;20447;-76
2022/08/06 15:04:38;;;;;;;1.60;1.47;;;;;;;;;;5091588;28;20476;-77